sensor_id;sensor_type;location;lat;lon;timestamp;P1;durP1;ratioP1;P2;durP2;ratioP2
40471;SDS011;26174;42.908;23.800;2022-10-16T00:00:56;14.65;;;8.73;;
40471;SDS011;26174;42.908;23.800;2022-10-16T00:03:22;15.30;;;8.85;;
40471;SDS011;26174;42.908;23.800;2022-10-16T00:05:47;15.63;;;9.35;;
40471;SDS011;26174;42.908;23.800;2022-10-16T00:08:13;20.23;;;9.15;;
40471;SDS011;26174;42.908;23.800;2022-10-16T00:10:39;20.13;;;10.25;;
40471;SDS011;26174;42.908;23.800;2022-10-16T00:13:05;24.13;;;10.10;;
40471;SDS011;26174;42.908;23.800;2022-10-16T00:15:33;18.85;;;9.90;;
40471;SDS011;26174;42.908;23.800;2022-10-16T00:18:01;19.50;;;9.90;;
40471;SDS011;26174;42.908;23.800;2022-10-16T00:20:27;22.65;;;10.70;;
40471;SDS011;26174;42.908;23.800;2022-10-16T00:22:52;19.45;;;10.50;;
40471;SDS011;26174;42.908;23.800;2022-10-16T00:25:18;18.67;;;9.70;;
40471;SDS011;26174;42.908;23.800;2022-10-16T00:27:44;17.02;;;10.45;;
40471;SDS011;26174;42.908;23.800;2022-10-16T00:30:09;20.42;;;9.77;;
40471;SDS011;26174;42.908;23.800;2022-10-16T00:32:35;22.15;;;9.88;;
40471;SDS011;26174;42.908;23.800;2022-10-16T00:35:00;23.55;;;10.57;;
40471;SDS011;26174;42.908;23.800;2022-10-16T00:37:28;20.02;;;10.13;;
40471;SDS011;26174;42.908;23.800;2022-10-16T00:39:53;21.13;;;9.57;;
40471;SDS011;26174;42.908;23.800;2022-10-16T00:42:19;16.80;;;9.90;;
40471;SDS011;26174;42.908;23.800;2022-10-16T00:44:52;20.88;;;10.10;;
40471;SDS011;26174;42.908;23.800;2022-10-16T00:47:29;16.27;;;9.50;;
40471;SDS011;26174;42.908;23.800;2022-10-16T00:50:18;20.35;;;10.05;;
40471;SDS011;26174;42.908;23.800;2022-10-16T00:52:48;14.70;;;9.48;;
40471;SDS011;26174;42.908;23.800;2022-10-16T00:55:15;20.38;;;10.40;;
40471;SDS011;26174;42.908;23.800;2022-10-16T00:57:40;18.75;;;11.25;;
40471;SDS011;26174;42.908;23.800;2022-10-16T01:00:07;19.45;;;10.65;;
40471;SDS011;26174;42.908;23.800;2022-10-16T01:02:35;20.98;;;11.27;;
40471;SDS011;26174;42.908;23.800;2022-10-16T01:05:00;20.88;;;10.40;;
40471;SDS011;26174;42.908;23.800;2022-10-16T01:13:18;18.92;;;9.88;;
40471;SDS011;26174;42.908;23.800;2022-10-16T01:15:50;19.92;;;9.90;;
40471;SDS011;26174;42.908;23.800;2022-10-16T01:18:22;21.85;;;10.27;;
40471;SDS011;26174;42.908;23.800;2022-10-16T01:21:01;19.25;;;10.27;;
40471;SDS011;26174;42.908;23.800;2022-10-16T01:29:00;19.73;;;9.05;;
40471;SDS011;26174;42.908;23.800;2022-10-16T01:31:32;15.90;;;8.75;;
40471;SDS011;26174;42.908;23.800;2022-10-16T01:34:04;15.57;;;9.10;;
40471;SDS011;26174;42.908;23.800;2022-10-16T01:36:37;20.05;;;9.60;;
40471;SDS011;26174;42.908;23.800;2022-10-16T01:39:05;17.75;;;8.52;;
40471;SDS011;26174;42.908;23.800;2022-10-16T01:41:38;16.85;;;9.38;;
40471;SDS011;26174;42.908;23.800;2022-10-16T01:44:10;17.75;;;8.32;;
40471;SDS011;26174;42.908;23.800;2022-10-16T01:46:40;13.32;;;8.30;;
40471;SDS011;26174;42.908;23.800;2022-10-16T01:49:06;24.40;;;8.25;;
40471;SDS011;26174;42.908;23.800;2022-10-16T01:51:34;16.17;;;8.65;;
40471;SDS011;26174;42.908;23.800;2022-10-16T01:54:00;16.08;;;8.13;;
40471;SDS011;26174;42.908;23.800;2022-10-16T01:56:27;16.85;;;8.65;;
40471;SDS011;26174;42.908;23.800;2022-10-16T01:59:15;14.85;;;7.38;;
40471;SDS011;26174;42.908;23.800;2022-10-16T02:01:42;11.88;;;7.13;;
40471;SDS011;26174;42.908;23.800;2022-10-16T02:04:14;20.50;;;8.23;;
40471;SDS011;26174;42.908;23.800;2022-10-16T02:07:00;16.33;;;7.72;;
40471;SDS011;26174;42.908;23.800;2022-10-16T02:09:26;12.02;;;7.15;;
40471;SDS011;26174;42.908;23.800;2022-10-16T02:11:52;13.57;;;7.47;;
40471;SDS011;26174;42.908;23.800;2022-10-16T02:14:19;18.90;;;7.53;;
40471;SDS011;26174;42.908;23.800;2022-10-16T02:16:45;16.38;;;7.82;;
40471;SDS011;26174;42.908;23.800;2022-10-16T02:19:15;14.18;;;8.25;;
40471;SDS011;26174;42.908;23.800;2022-10-16T02:21:51;17.98;;;8.13;;
40471;SDS011;26174;42.908;23.800;2022-10-16T02:30:01;19.30;;;8.27;;
40471;SDS011;26174;42.908;23.800;2022-10-16T02:32:33;13.43;;;7.75;;
40471;SDS011;26174;42.908;23.800;2022-10-16T02:34:59;15.77;;;8.48;;
40471;SDS011;26174;42.908;23.800;2022-10-16T02:37:25;19.67;;;8.30;;
40471;SDS011;26174;42.908;23.800;2022-10-16T02:39:52;13.30;;;8.43;;
40471;SDS011;26174;42.908;23.800;2022-10-16T02:42:19;12.75;;;7.85;;
40471;SDS011;26174;42.908;23.800;2022-10-16T02:44:44;16.95;;;8.65;;
40471;SDS011;26174;42.908;23.800;2022-10-16T02:47:10;17.20;;;9.07;;
40471;SDS011;26174;42.908;23.800;2022-10-16T02:49:35;22.80;;;11.38;;
40471;SDS011;26174;42.908;23.800;2022-10-16T02:52:01;22.00;;;10.13;;
40471;SDS011;26174;42.908;23.800;2022-10-16T02:54:26;15.15;;;8.93;;
40471;SDS011;26174;42.908;23.800;2022-10-16T02:56:52;19.63;;;10.20;;
40471;SDS011;26174;42.908;23.800;2022-10-16T02:59:17;17.08;;;10.43;;
40471;SDS011;26174;42.908;23.800;2022-10-16T03:01:43;18.70;;;10.80;;
40471;SDS011;26174;42.908;23.800;2022-10-16T03:04:09;19.50;;;9.43;;
40471;SDS011;26174;42.908;23.800;2022-10-16T03:06:34;20.23;;;10.23;;
40471;SDS011;26174;42.908;23.800;2022-10-16T03:09:00;14.27;;;8.40;;
40471;SDS011;26174;42.908;23.800;2022-10-16T03:11:25;17.42;;;8.30;;
40471;SDS011;26174;42.908;23.800;2022-10-16T03:13:51;14.95;;;7.75;;
40471;SDS011;26174;42.908;23.800;2022-10-16T03:16:17;13.10;;;7.80;;
40471;SDS011;26174;42.908;23.800;2022-10-16T03:18:42;18.67;;;7.55;;
40471;SDS011;26174;42.908;23.800;2022-10-16T03:21:08;14.48;;;7.45;;
40471;SDS011;26174;42.908;23.800;2022-10-16T03:23:33;15.85;;;8.00;;
40471;SDS011;26174;42.908;23.800;2022-10-16T03:25:59;18.05;;;7.57;;
40471;SDS011;26174;42.908;23.800;2022-10-16T03:28:25;17.52;;;8.05;;
40471;SDS011;26174;42.908;23.800;2022-10-16T03:30:50;12.02;;;7.47;;
40471;SDS011;26174;42.908;23.800;2022-10-16T03:33:16;18.25;;;8.10;;
40471;SDS011;26174;42.908;23.800;2022-10-16T03:35:41;17.02;;;8.82;;
40471;SDS011;26174;42.908;23.800;2022-10-16T03:38:07;19.75;;;7.70;;
40471;SDS011;26174;42.908;23.800;2022-10-16T03:40:32;17.58;;;8.38;;
40471;SDS011;26174;42.908;23.800;2022-10-16T03:42:58;15.27;;;7.43;;
40471;SDS011;26174;42.908;23.800;2022-10-16T03:45:24;16.05;;;7.80;;
40471;SDS011;26174;42.908;23.800;2022-10-16T03:47:50;17.67;;;8.30;;
40471;SDS011;26174;42.908;23.800;2022-10-16T03:50:16;13.75;;;7.55;;
40471;SDS011;26174;42.908;23.800;2022-10-16T03:52:41;13.30;;;6.95;;
40471;SDS011;26174;42.908;23.800;2022-10-16T03:55:07;13.00;;;6.82;;
40471;SDS011;26174;42.908;23.800;2022-10-16T03:57:32;13.70;;;7.75;;
40471;SDS011;26174;42.908;23.800;2022-10-16T03:59:58;14.98;;;7.72;;
40471;SDS011;26174;42.908;23.800;2022-10-16T04:02:24;15.23;;;7.68;;
40471;SDS011;26174;42.908;23.800;2022-10-16T04:04:50;19.75;;;8.55;;
40471;SDS011;26174;42.908;23.800;2022-10-16T04:07:15;18.13;;;9.00;;
40471;SDS011;26174;42.908;23.800;2022-10-16T04:09:41;17.90;;;10.15;;
40471;SDS011;26174;42.908;23.800;2022-10-16T04:12:07;24.30;;;13.25;;
40471;SDS011;26174;42.908;23.800;2022-10-16T04:14:32;30.10;;;14.77;;
40471;SDS011;26174;42.908;23.800;2022-10-16T04:16:59;28.85;;;13.43;;
40471;SDS011;26174;42.908;23.800;2022-10-16T04:19:24;30.77;;;13.43;;
40471;SDS011;26174;42.908;23.800;2022-10-16T04:21:50;28.92;;;14.13;;
40471;SDS011;26174;42.908;23.800;2022-10-16T04:24:15;26.33;;;13.57;;
40471;SDS011;26174;42.908;23.800;2022-10-16T04:26:41;29.55;;;14.40;;
40471;SDS011;26174;42.908;23.800;2022-10-16T04:29:06;26.30;;;13.35;;
40471;SDS011;26174;42.908;23.800;2022-10-16T04:31:32;25.33;;;12.27;;
40471;SDS011;26174;42.908;23.800;2022-10-16T04:33:58;27.30;;;13.30;;
40471;SDS011;26174;42.908;23.800;2022-10-16T04:36:24;29.70;;;12.85;;
40471;SDS011;26174;42.908;23.800;2022-10-16T04:38:49;36.58;;;13.15;;
40471;SDS011;26174;42.908;23.800;2022-10-16T04:41:15;23.67;;;11.15;;
40471;SDS011;26174;42.908;23.800;2022-10-16T04:43:40;20.92;;;10.35;;
40471;SDS011;26174;42.908;23.800;2022-10-16T04:46:06;22.80;;;10.90;;
40471;SDS011;26174;42.908;23.800;2022-10-16T04:48:32;28.30;;;10.52;;
40471;SDS011;26174;42.908;23.800;2022-10-16T04:50:58;48.38;;;11.88;;
40471;SDS011;26174;42.908;23.800;2022-10-16T04:53:24;26.73;;;12.50;;
40471;SDS011;26174;42.908;23.800;2022-10-16T04:55:50;23.05;;;12.02;;
40471;SDS011;26174;42.908;23.800;2022-10-16T04:58:15;25.65;;;11.52;;
40471;SDS011;26174;42.908;23.800;2022-10-16T05:00:41;34.70;;;12.55;;
40471;SDS011;26174;42.908;23.800;2022-10-16T05:03:07;42.05;;;14.60;;
40471;SDS011;26174;42.908;23.800;2022-10-16T05:05:34;44.47;;;15.35;;
40471;SDS011;26174;42.908;23.800;2022-10-16T05:08:00;60.17;;;16.60;;
40471;SDS011;26174;42.908;23.800;2022-10-16T05:10:26;60.10;;;15.73;;
40471;SDS011;26174;42.908;23.800;2022-10-16T05:12:52;42.40;;;16.02;;
40471;SDS011;26174;42.908;23.800;2022-10-16T05:15:18;46.65;;;16.13;;
40471;SDS011;26174;42.908;23.800;2022-10-16T05:17:44;42.72;;;17.13;;
40471;SDS011;26174;42.908;23.800;2022-10-16T05:20:10;60.63;;;16.95;;
40471;SDS011;26174;42.908;23.800;2022-10-16T05:22:36;43.97;;;16.23;;
40471;SDS011;26174;42.908;23.800;2022-10-16T05:25:01;38.58;;;16.10;;
40471;SDS011;26174;42.908;23.800;2022-10-16T05:27:27;80.93;;;15.98;;
40471;SDS011;26174;42.908;23.800;2022-10-16T05:29:53;42.88;;;16.15;;
40471;SDS011;26174;42.908;23.800;2022-10-16T05:32:18;46.58;;;17.90;;
40471;SDS011;26174;42.908;23.800;2022-10-16T05:34:44;43.70;;;15.20;;
40471;SDS011;26174;42.908;23.800;2022-10-16T05:37:10;26.38;;;12.60;;
40471;SDS011;26174;42.908;23.800;2022-10-16T05:39:37;30.50;;;11.50;;
40471;SDS011;26174;42.908;23.800;2022-10-16T05:42:03;36.33;;;12.50;;
40471;SDS011;26174;42.908;23.800;2022-10-16T05:44:29;57.05;;;11.98;;
40471;SDS011;26174;42.908;23.800;2022-10-16T05:46:55;52.22;;;12.60;;
40471;SDS011;26174;42.908;23.800;2022-10-16T05:49:21;34.90;;;11.35;;
40471;SDS011;26174;42.908;23.800;2022-10-16T05:51:46;19.95;;;11.45;;
40471;SDS011;26174;42.908;23.800;2022-10-16T05:54:12;37.50;;;11.55;;
40471;SDS011;26174;42.908;23.800;2022-10-16T05:56:37;43.50;;;12.40;;
40471;SDS011;26174;42.908;23.800;2022-10-16T05:59:03;47.03;;;12.23;;
40471;SDS011;26174;42.908;23.800;2022-10-16T06:01:29;43.55;;;12.55;;
40471;SDS011;26174;42.908;23.800;2022-10-16T06:03:56;29.35;;;13.18;;
40471;SDS011;26174;42.908;23.800;2022-10-16T06:06:23;39.38;;;15.20;;
40471;SDS011;26174;42.908;23.800;2022-10-16T06:08:51;35.60;;;15.40;;
40471;SDS011;26174;42.908;23.800;2022-10-16T06:11:36;44.13;;;17.35;;
40471;SDS011;26174;42.908;23.800;2022-10-16T06:14:01;31.50;;;17.23;;
40471;SDS011;26174;42.908;23.800;2022-10-16T06:16:31;46.65;;;20.52;;
40471;SDS011;26174;42.908;23.800;2022-10-16T06:18:58;41.63;;;19.65;;
40471;SDS011;26174;42.908;23.800;2022-10-16T06:21:27;45.13;;;21.30;;
40471;SDS011;26174;42.908;23.800;2022-10-16T06:23:55;51.63;;;22.25;;
40471;SDS011;26174;42.908;23.800;2022-10-16T06:26:22;57.85;;;25.67;;
40471;SDS011;26174;42.908;23.800;2022-10-16T06:28:49;51.25;;;22.48;;
40471;SDS011;26174;42.908;23.800;2022-10-16T06:31:15;54.42;;;23.17;;
40471;SDS011;26174;42.908;23.800;2022-10-16T06:33:42;59.03;;;24.63;;
40471;SDS011;26174;42.908;23.800;2022-10-16T06:36:09;56.28;;;24.23;;
40471;SDS011;26174;42.908;23.800;2022-10-16T06:38:36;63.25;;;25.88;;
40471;SDS011;26174;42.908;23.800;2022-10-16T06:41:03;52.33;;;24.20;;
40471;SDS011;26174;42.908;23.800;2022-10-16T06:43:30;47.72;;;24.98;;
40471;SDS011;26174;42.908;23.800;2022-10-16T06:46:00;52.00;;;23.38;;
40471;SDS011;26174;42.908;23.800;2022-10-16T06:48:26;57.25;;;24.80;;
40471;SDS011;26174;42.908;23.800;2022-10-16T06:51:00;54.70;;;25.40;;
40471;SDS011;26174;42.908;23.800;2022-10-16T06:53:30;52.13;;;25.48;;
40471;SDS011;26174;42.908;23.800;2022-10-16T06:56:01;76.90;;;28.77;;
40471;SDS011;26174;42.908;23.800;2022-10-16T06:58:35;57.33;;;26.42;;
40471;SDS011;26174;42.908;23.800;2022-10-16T07:01:00;57.08;;;26.95;;
40471;SDS011;26174;42.908;23.800;2022-10-16T07:03:26;56.65;;;26.35;;
40471;SDS011;26174;42.908;23.800;2022-10-16T07:05:51;53.47;;;25.77;;
40471;SDS011;26174;42.908;23.800;2022-10-16T07:08:17;49.47;;;24.10;;
40471;SDS011;26174;42.908;23.800;2022-10-16T07:10:42;53.25;;;23.50;;
40471;SDS011;26174;42.908;23.800;2022-10-16T07:13:08;56.90;;;22.77;;
40471;SDS011;26174;42.908;23.800;2022-10-16T07:15:34;55.28;;;25.00;;
40471;SDS011;26174;42.908;23.800;2022-10-16T07:17:59;36.42;;;20.80;;
40471;SDS011;26174;42.908;23.800;2022-10-16T07:20:25;39.90;;;20.92;;
40471;SDS011;26174;42.908;23.800;2022-10-16T07:22:51;35.97;;;17.70;;
40471;SDS011;26174;42.908;23.800;2022-10-16T07:25:17;31.63;;;15.50;;
40471;SDS011;26174;42.908;23.800;2022-10-16T07:27:43;28.13;;;15.00;;
40471;SDS011;26174;42.908;23.800;2022-10-16T07:30:08;43.65;;;21.88;;
40471;SDS011;26174;42.908;23.800;2022-10-16T07:32:34;30.27;;;17.02;;
40471;SDS011;26174;42.908;23.800;2022-10-16T07:35:00;34.85;;;16.90;;
40471;SDS011;26174;42.908;23.800;2022-10-16T07:37:25;33.50;;;19.05;;
40471;SDS011;26174;42.908;23.800;2022-10-16T07:39:51;42.65;;;22.55;;
40471;SDS011;26174;42.908;23.800;2022-10-16T07:42:16;47.60;;;25.25;;
40471;SDS011;26174;42.908;23.800;2022-10-16T07:44:42;40.40;;;22.90;;
40471;SDS011;26174;42.908;23.800;2022-10-16T07:47:08;38.15;;;19.90;;
40471;SDS011;26174;42.908;23.800;2022-10-16T07:49:34;35.13;;;20.13;;
40471;SDS011;26174;42.908;23.800;2022-10-16T07:51:59;34.60;;;20.42;;
40471;SDS011;26174;42.908;23.800;2022-10-16T07:54:25;54.75;;;27.45;;
40471;SDS011;26174;42.908;23.800;2022-10-16T07:56:51;36.13;;;21.33;;
40471;SDS011;26174;42.908;23.800;2022-10-16T07:59:16;40.90;;;22.58;;
40471;SDS011;26174;42.908;23.800;2022-10-16T08:01:42;38.08;;;21.67;;
40471;SDS011;26174;42.908;23.800;2022-10-16T08:04:08;37.63;;;21.30;;
40471;SDS011;26174;42.908;23.800;2022-10-16T08:06:35;30.45;;;18.17;;
40471;SDS011;26174;42.908;23.800;2022-10-16T08:09:02;37.33;;;18.58;;
40471;SDS011;26174;42.908;23.800;2022-10-16T08:11:28;33.00;;;18.13;;
40471;SDS011;26174;42.908;23.800;2022-10-16T08:13:54;28.05;;;16.85;;
40471;SDS011;26174;42.908;23.800;2022-10-16T08:16:20;27.63;;;15.90;;
40471;SDS011;26174;42.908;23.800;2022-10-16T08:18:46;22.60;;;13.45;;
40471;SDS011;26174;42.908;23.800;2022-10-16T08:21:13;25.45;;;16.00;;
40471;SDS011;26174;42.908;23.800;2022-10-16T08:23:40;29.50;;;16.05;;
40471;SDS011;26174;42.908;23.800;2022-10-16T08:26:06;27.48;;;16.17;;
40471;SDS011;26174;42.908;23.800;2022-10-16T08:28:32;26.88;;;16.25;;
40471;SDS011;26174;42.908;23.800;2022-10-16T08:31:11;27.70;;;15.13;;
40471;SDS011;26174;42.908;23.800;2022-10-16T08:33:40;39.38;;;15.38;;
40471;SDS011;26174;42.908;23.800;2022-10-16T08:36:07;19.40;;;12.77;;
40471;SDS011;26174;42.908;23.800;2022-10-16T08:38:35;18.52;;;13.00;;
40471;SDS011;26174;42.908;23.800;2022-10-16T08:49:47;17.58;;;9.23;;
40471;SDS011;26174;42.908;23.800;2022-10-16T08:52:18;15.93;;;10.02;;
40471;SDS011;26174;42.908;23.800;2022-10-16T08:54:45;20.30;;;8.73;;
40471;SDS011;26174;42.908;23.800;2022-10-16T08:57:20;15.25;;;9.02;;
40471;SDS011;26174;42.908;23.800;2022-10-16T08:59:46;22.10;;;11.65;;
40471;SDS011;26174;42.908;23.800;2022-10-16T09:02:55;18.92;;;12.02;;
40471;SDS011;26174;42.908;23.800;2022-10-16T09:11:00;8.88;;;6.45;;
40471;SDS011;26174;42.908;23.800;2022-10-16T09:13:40;12.63;;;6.07;;
40471;SDS011;26174;42.908;23.800;2022-10-16T09:21:38;9.02;;;4.07;;
40471;SDS011;26174;42.908;23.800;2022-10-16T09:24:12;4.80;;;3.58;;
40471;SDS011;26174;42.908;23.800;2022-10-16T09:26:40;6.28;;;3.63;;
40471;SDS011;26174;42.908;23.800;2022-10-16T09:29:05;14.48;;;4.07;;
40471;SDS011;26174;42.908;23.800;2022-10-16T09:31:31;4.93;;;3.28;;
40471;SDS011;26174;42.908;23.800;2022-10-16T09:33:58;7.90;;;3.00;;
40471;SDS011;26174;42.908;23.800;2022-10-16T09:36:25;5.53;;;3.75;;
40471;SDS011;26174;42.908;23.800;2022-10-16T09:39:02;7.13;;;3.67;;
40471;SDS011;26174;42.908;23.800;2022-10-16T09:41:33;7.10;;;3.97;;
40471;SDS011;26174;42.908;23.800;2022-10-16T09:44:00;17.35;;;6.00;;
40471;SDS011;26174;42.908;23.800;2022-10-16T09:46:34;17.73;;;5.40;;
40471;SDS011;26174;42.908;23.800;2022-10-16T09:49:23;6.57;;;3.40;;
40471;SDS011;26174;42.908;23.800;2022-10-16T09:51:50;6.15;;;3.60;;
40471;SDS011;26174;42.908;23.800;2022-10-16T09:54:17;6.63;;;3.50;;
40471;SDS011;26174;42.908;23.800;2022-10-16T09:56:44;8.40;;;3.90;;
40471;SDS011;26174;42.908;23.800;2022-10-16T10:01:50;4.95;;;3.28;;
40471;SDS011;26174;42.908;23.800;2022-10-16T10:04:17;4.72;;;3.28;;
40471;SDS011;26174;42.908;23.800;2022-10-16T10:06:51;6.97;;;3.95;;
40471;SDS011;26174;42.908;23.800;2022-10-16T10:09:24;5.13;;;3.40;;
40471;SDS011;26174;42.908;23.800;2022-10-16T10:11:54;6.03;;;3.33;;
40471;SDS011;26174;42.908;23.800;2022-10-16T10:14:43;6.45;;;3.40;;
40471;SDS011;26174;42.908;23.800;2022-10-16T10:17:15;4.25;;;3.17;;
40471;SDS011;26174;42.908;23.800;2022-10-16T10:19:54;10.48;;;3.20;;
40471;SDS011;26174;42.908;23.800;2022-10-16T10:22:32;7.45;;;4.20;;
40471;SDS011;26174;42.908;23.800;2022-10-16T10:30:35;6.28;;;4.50;;
40471;SDS011;26174;42.908;23.800;2022-10-16T10:38:38;7.22;;;3.20;;
40471;SDS011;26174;42.908;23.800;2022-10-16T10:46:34;7.38;;;3.95;;
40471;SDS011;26174;42.908;23.800;2022-10-16T10:49:08;21.60;;;4.65;;
40471;SDS011;26174;42.908;23.800;2022-10-16T10:51:40;5.35;;;3.28;;
40471;SDS011;26174;42.908;23.800;2022-10-16T10:54:28;22.65;;;15.77;;
40471;SDS011;26174;42.908;23.800;2022-10-16T11:00:21;13.80;;;10.52;;
40471;SDS011;26174;42.908;23.800;2022-10-16T11:02:41;31.67;;;4.78;;
40471;SDS011;26174;42.908;23.800;2022-10-16T11:08:26;9.07;;;3.88;;
40471;SDS011;26174;42.908;23.800;2022-10-16T11:16:30;5.75;;;3.83;;
40471;SDS011;26174;42.908;23.800;2022-10-16T11:22:51;5.43;;;3.65;;
40471;SDS011;26174;42.908;23.800;2022-10-16T11:28:14;4.80;;;3.58;;
40471;SDS011;26174;42.908;23.800;2022-10-16T11:31:05;6.85;;;4.57;;
40471;SDS011;26174;42.908;23.800;2022-10-16T11:36:26;4.28;;;2.97;;
40471;SDS011;26174;42.908;23.800;2022-10-16T11:39:00;4.13;;;3.03;;
40471;SDS011;26174;42.908;23.800;2022-10-16T11:42:10;4.10;;;3.00;;
40471;SDS011;26174;42.908;23.800;2022-10-16T11:52:58;4.40;;;3.20;;
40471;SDS011;26174;42.908;23.800;2022-10-16T11:55:27;4.70;;;2.65;;
40471;SDS011;26174;42.908;23.800;2022-10-16T11:57:58;3.80;;;2.90;;
40471;SDS011;26174;42.908;23.800;2022-10-16T12:00:33;7.97;;;3.40;;
40471;SDS011;26174;42.908;23.800;2022-10-16T12:08:52;2.85;;;2.50;;
40471;SDS011;26174;42.908;23.800;2022-10-16T12:11:23;6.47;;;3.53;;
40471;SDS011;26174;42.908;23.800;2022-10-16T12:13:52;6.32;;;3.28;;
40471;SDS011;26174;42.908;23.800;2022-10-16T12:16:28;11.65;;;3.30;;
40471;SDS011;26174;42.908;23.800;2022-10-16T12:19:11;5.80;;;2.92;;
40471;SDS011;26174;42.908;23.800;2022-10-16T12:21:38;4.07;;;2.80;;
40471;SDS011;26174;42.908;23.800;2022-10-16T12:24:04;23.45;;;5.50;;
40471;SDS011;26174;42.908;23.800;2022-10-16T12:26:34;6.90;;;3.10;;
40471;SDS011;26174;42.908;23.800;2022-10-16T12:32:26;7.65;;;3.30;;
40471;SDS011;26174;42.908;23.800;2022-10-16T12:34:57;6.82;;;3.20;;
40471;SDS011;26174;42.908;23.800;2022-10-16T12:37:24;4.10;;;3.00;;
40471;SDS011;26174;42.908;23.800;2022-10-16T12:40:11;4.63;;;2.63;;
40471;SDS011;26174;42.908;23.800;2022-10-16T12:42:38;3.30;;;2.28;;
40471;SDS011;26174;42.908;23.800;2022-10-16T12:47:52;4.38;;;2.97;;
40471;SDS011;26174;42.908;23.800;2022-10-16T12:53:02;3.17;;;2.25;;
40471;SDS011;26174;42.908;23.800;2022-10-16T12:55:42;4.85;;;3.22;;
40471;SDS011;26174;42.908;23.800;2022-10-16T13:01:17;5.18;;;2.95;;
40471;SDS011;26174;42.908;23.800;2022-10-16T13:06:22;4.78;;;2.42;;
40471;SDS011;26174;42.908;23.800;2022-10-16T13:14:35;6.50;;;2.53;;
40471;SDS011;26174;42.908;23.800;2022-10-16T13:25:16;2.58;;;2.22;;
40471;SDS011;26174;42.908;23.800;2022-10-16T13:28:17;3.88;;;2.80;;
40471;SDS011;26174;42.908;23.800;2022-10-16T13:33:12;3.08;;;2.08;;
40471;SDS011;26174;42.908;23.800;2022-10-16T13:35:46;3.88;;;2.20;;
40471;SDS011;26174;42.908;23.800;2022-10-16T13:38:20;3.58;;;2.38;;
40471;SDS011;26174;42.908;23.800;2022-10-16T13:41:21;4.88;;;2.97;;
40471;SDS011;26174;42.908;23.800;2022-10-16T13:43:44;10.15;;;2.60;;
40471;SDS011;26174;42.908;23.800;2022-10-16T13:46:13;8.75;;;3.00;;
40471;SDS011;26174;42.908;23.800;2022-10-16T13:48:58;4.20;;;2.38;;
40471;SDS011;26174;42.908;23.800;2022-10-16T13:51:58;4.25;;;2.42;;
40471;SDS011;26174;42.908;23.800;2022-10-16T13:54:25;9.18;;;2.80;;
40471;SDS011;26174;42.908;23.800;2022-10-16T13:56:51;6.93;;;4.60;;
40471;SDS011;26174;42.908;23.800;2022-10-16T13:59:25;6.40;;;3.20;;
40471;SDS011;26174;42.908;23.800;2022-10-16T14:01:55;5.55;;;2.60;;
40471;SDS011;26174;42.908;23.800;2022-10-16T14:04:21;5.45;;;3.25;;
40471;SDS011;26174;42.908;23.800;2022-10-16T14:06:49;9.30;;;3.13;;
40471;SDS011;26174;42.908;23.800;2022-10-16T14:09:25;5.60;;;2.55;;
40471;SDS011;26174;42.908;23.800;2022-10-16T14:11:59;8.02;;;3.97;;
40471;SDS011;26174;42.908;23.800;2022-10-16T14:14:39;7.47;;;4.35;;
40471;SDS011;26174;42.908;23.800;2022-10-16T14:17:20;9.65;;;4.40;;
40471;SDS011;26174;42.908;23.800;2022-10-16T14:19:49;22.10;;;13.73;;
40471;SDS011;26174;42.908;23.800;2022-10-16T14:22:21;9.93;;;5.13;;
40471;SDS011;26174;42.908;23.800;2022-10-16T14:24:47;8.23;;;3.40;;
40471;SDS011;26174;42.908;23.800;2022-10-16T14:30:32;9.82;;;5.60;;
40471;SDS011;26174;42.908;23.800;2022-10-16T14:33:01;13.57;;;6.65;;
40471;SDS011;26174;42.908;23.800;2022-10-16T14:35:35;14.35;;;7.00;;
40471;SDS011;26174;42.908;23.800;2022-10-16T14:38:03;7.85;;;4.45;;
40471;SDS011;26174;42.908;23.800;2022-10-16T14:40:30;9.27;;;5.20;;
40471;SDS011;26174;42.908;23.800;2022-10-16T14:43:00;8.30;;;3.55;;
40471;SDS011;26174;42.908;23.800;2022-10-16T14:45:30;7.20;;;3.40;;
40471;SDS011;26174;42.908;23.800;2022-10-16T14:47:59;7.20;;;4.32;;
40471;SDS011;26174;42.908;23.800;2022-10-16T14:50:26;9.40;;;6.00;;
40471;SDS011;26174;42.908;23.800;2022-10-16T14:52:51;8.25;;;4.43;;
40471;SDS011;26174;42.908;23.800;2022-10-16T14:55:17;15.57;;;4.78;;
40471;SDS011;26174;42.908;23.800;2022-10-16T14:57:43;10.90;;;5.03;;
40471;SDS011;26174;42.908;23.800;2022-10-16T15:00:12;8.32;;;4.68;;
40471;SDS011;26174;42.908;23.800;2022-10-16T15:02:43;12.43;;;7.15;;
40471;SDS011;26174;42.908;23.800;2022-10-16T15:07:51;13.00;;;7.45;;
40471;SDS011;26174;42.908;23.800;2022-10-16T15:10:21;13.10;;;6.65;;
40471;SDS011;26174;42.908;23.800;2022-10-16T15:12:48;25.52;;;13.80;;
40471;SDS011;26174;42.908;23.800;2022-10-16T15:17:49;13.57;;;7.47;;
40471;SDS011;26174;42.908;23.800;2022-10-16T15:20:20;8.45;;;5.47;;
40471;SDS011;26174;42.908;23.800;2022-10-16T15:22:46;11.57;;;5.20;;
40471;SDS011;26174;42.908;23.800;2022-10-16T15:25:54;11.55;;;4.07;;
40471;SDS011;26174;42.908;23.800;2022-10-16T15:28:01;6.75;;;4.05;;
40471;SDS011;26174;42.908;23.800;2022-10-16T15:30:27;5.55;;;3.80;;
40471;SDS011;26174;42.908;23.800;2022-10-16T15:32:53;11.55;;;4.25;;
40471;SDS011;26174;42.908;23.800;2022-10-16T15:35:19;11.43;;;4.32;;
40471;SDS011;26174;42.908;23.800;2022-10-16T15:37:47;15.77;;;7.90;;
40471;SDS011;26174;42.908;23.800;2022-10-16T15:40:14;25.55;;;10.55;;
40471;SDS011;26174;42.908;23.800;2022-10-16T15:42:43;57.00;;;15.95;;
40471;SDS011;26174;42.908;23.800;2022-10-16T15:45:09;55.28;;;18.42;;
40471;SDS011;26174;42.908;23.800;2022-10-16T15:47:35;58.15;;;21.65;;
40471;SDS011;26174;42.908;23.800;2022-10-16T15:50:01;33.22;;;15.93;;
40471;SDS011;26174;42.908;23.800;2022-10-16T15:52:27;35.45;;;14.30;;
40471;SDS011;26174;42.908;23.800;2022-10-16T15:54:53;37.13;;;17.58;;
40471;SDS011;26174;42.908;23.800;2022-10-16T15:57:19;26.52;;;13.65;;
40471;SDS011;26174;42.908;23.800;2022-10-16T15:59:45;43.83;;;16.13;;
40471;SDS011;26174;42.908;23.800;2022-10-16T16:02:10;78.50;;;29.65;;
40471;SDS011;26174;42.908;23.800;2022-10-16T16:04:36;131.45;;;49.83;;
40471;SDS011;26174;42.908;23.800;2022-10-16T16:07:02;69.70;;;27.65;;
40471;SDS011;26174;42.908;23.800;2022-10-16T16:09:30;129.23;;;40.20;;
40471;SDS011;26174;42.908;23.800;2022-10-16T16:11:59;55.42;;;23.38;;
40471;SDS011;26174;42.908;23.800;2022-10-16T16:14:26;141.40;;;50.00;;
40471;SDS011;26174;42.908;23.800;2022-10-16T16:16:56;55.50;;;22.50;;
40471;SDS011;26174;42.908;23.800;2022-10-16T16:19:22;49.28;;;21.27;;
40471;SDS011;26174;42.908;23.800;2022-10-16T16:21:48;50.03;;;23.10;;
40471;SDS011;26174;42.908;23.800;2022-10-16T16:24:20;69.03;;;28.77;;
40471;SDS011;26174;42.908;23.800;2022-10-16T16:26:46;49.65;;;20.90;;
40471;SDS011;26174;42.908;23.800;2022-10-16T16:29:12;36.30;;;15.50;;
40471;SDS011;26174;42.908;23.800;2022-10-16T16:31:40;24.60;;;11.38;;
40471;SDS011;26174;42.908;23.800;2022-10-16T16:34:06;27.70;;;13.45;;
40471;SDS011;26174;42.908;23.800;2022-10-16T16:36:32;34.83;;;15.45;;
40471;SDS011;26174;42.908;23.800;2022-10-16T16:38:59;40.60;;;18.00;;